sensor_id;sensor_type;location;lat;lon;timestamp;P1;durP1;ratioP1;P2;durP2;ratioP2
77775;SDS011;73554;43.328;6.668;2024-03-23T00:55:02;9.88;;;6.68;;
77775;SDS011;73554;43.328;6.668;2024-03-23T00:57:27;11.60;;;7.20;;
77775;SDS011;73554;43.328;6.668;2024-03-23T00:59:52;8.93;;;6.53;;
77775;SDS011;73554;43.328;6.668;2024-03-23T01:02:18;9.00;;;6.17;;
77775;SDS011;73554;43.328;6.668;2024-03-23T01:04:43;10.48;;;6.63;;
77775;SDS011;73554;43.328;6.668;2024-03-23T01:07:09;12.70;;;6.77;;
77775;SDS011;73554;43.328;6.668;2024-03-23T01:09:34;10.00;;;6.43;;
77775;SDS011;73554;43.328;6.668;2024-03-23T01:11:59;11.07;;;6.30;;
77775;SDS011;73554;43.328;6.668;2024-03-23T01:14:27;9.20;;;6.33;;
77775;SDS011;73554;43.328;6.668;2024-03-23T01:16:53;10.20;;;8.07;;
77775;SDS011;73554;43.328;6.668;2024-03-23T01:19:18;9.70;;;6.63;;
77775;SDS011;73554;43.328;6.668;2024-03-23T01:21:43;10.47;;;6.83;;
77775;SDS011;73554;43.328;6.668;2024-03-23T01:24:08;10.17;;;6.07;;
77775;SDS011;73554;43.328;6.668;2024-03-23T01:26:35;9.82;;;6.40;;
77775;SDS011;73554;43.328;6.668;2024-03-23T01:29:02;11.85;;;6.57;;
77775;SDS011;73554;43.328;6.668;2024-03-23T01:31:27;9.60;;;6.10;;
77775;SDS011;73554;43.328;6.668;2024-03-23T01:33:52;15.77;;;7.10;;
77775;SDS011;73554;43.328;6.668;2024-03-23T01:36:18;9.52;;;6.80;;
77775;SDS011;73554;43.328;6.668;2024-03-23T01:38:43;8.68;;;6.50;;
77775;SDS011;73554;43.328;6.668;2024-03-23T01:41:08;9.30;;;6.73;;
77775;SDS011;73554;43.328;6.668;2024-03-23T01:43:34;10.05;;;6.78;;
77775;SDS011;73554;43.328;6.668;2024-03-23T01:45:59;9.77;;;6.63;;
77775;SDS011;73554;43.328;6.668;2024-03-23T01:48:24;10.13;;;7.07;;
77775;SDS011;73554;43.328;6.668;2024-03-23T01:50:50;9.57;;;6.70;;
77775;SDS011;73554;43.328;6.668;2024-03-23T01:53:18;11.05;;;6.70;;
77775;SDS011;73554;43.328;6.668;2024-03-23T01:55:46;10.15;;;7.43;;
77775;SDS011;73554;43.328;6.668;2024-03-23T01:58:11;9.98;;;6.10;;
77775;SDS011;73554;43.328;6.668;2024-03-23T02:00:37;10.00;;;6.20;;
77775;SDS011;73554;43.328;6.668;2024-03-23T02:03:02;9.35;;;6.55;;
77775;SDS011;73554;43.328;6.668;2024-03-23T02:05:27;10.50;;;7.65;;
77775;SDS011;73554;43.328;6.668;2024-03-23T02:07:53;11.95;;;7.55;;
77775;SDS011;73554;43.328;6.668;2024-03-23T02:10:18;9.83;;;6.10;;
77775;SDS011;73554;43.328;6.668;2024-03-23T02:12:44;11.65;;;6.72;;
77775;SDS011;73554;43.328;6.668;2024-03-23T02:15:09;10.18;;;6.75;;
77775;SDS011;73554;43.328;6.668;2024-03-23T02:17:34;8.40;;;6.10;;
77775;SDS011;73554;43.328;6.668;2024-03-23T02:20:00;9.98;;;6.70;;
77775;SDS011;73554;43.328;6.668;2024-03-23T02:22:35;10.95;;;6.75;;
77775;SDS011;73554;43.328;6.668;2024-03-23T02:25:00;11.60;;;6.15;;
77775;SDS011;73554;43.328;6.668;2024-03-23T02:27:25;10.37;;;6.40;;
77775;SDS011;73554;43.328;6.668;2024-03-23T02:29:50;8.40;;;6.33;;
77775;SDS011;73554;43.328;6.668;2024-03-23T02:32:16;9.60;;;6.70;;
77775;SDS011;73554;43.328;6.668;2024-03-23T02:34:44;10.07;;;6.57;;
77775;SDS011;73554;43.328;6.668;2024-03-23T02:37:12;9.57;;;7.13;;
77775;SDS011;73554;43.328;6.668;2024-03-23T02:39:37;9.65;;;6.40;;
77775;SDS011;73554;43.328;6.668;2024-03-23T02:42:02;12.27;;;6.50;;
77775;SDS011;73554;43.328;6.668;2024-03-23T02:44:28;9.95;;;7.47;;
77775;SDS011;73554;43.328;6.668;2024-03-23T02:46:53;9.05;;;5.50;;
77775;SDS011;73554;43.328;6.668;2024-03-23T02:49:18;9.93;;;6.30;;
77775;SDS011;73554;43.328;6.668;2024-03-23T02:51:44;8.70;;;6.10;;
77775;SDS011;73554;43.328;6.668;2024-03-23T02:54:10;8.90;;;5.75;;
77775;SDS011;73554;43.328;6.668;2024-03-23T02:56:35;9.45;;;6.47;;
77775;SDS011;73554;43.328;6.668;2024-03-23T02:59:01;8.73;;;5.93;;
77775;SDS011;73554;43.328;6.668;2024-03-23T03:01:26;8.23;;;5.63;;
77775;SDS011;73554;43.328;6.668;2024-03-23T03:03:51;8.83;;;5.90;;
77775;SDS011;73554;43.328;6.668;2024-03-23T03:06:23;7.88;;;5.20;;
77775;SDS011;73554;43.328;6.668;2024-03-23T03:08:49;9.50;;;5.80;;
77775;SDS011;73554;43.328;6.668;2024-03-23T03:11:14;9.67;;;5.83;;
77775;SDS011;73554;43.328;6.668;2024-03-23T03:13:39;9.67;;;6.17;;
77775;SDS011;73554;43.328;6.668;2024-03-23T03:16:08;10.13;;;5.97;;
77775;SDS011;73554;43.328;6.668;2024-03-23T03:18:33;8.32;;;5.80;;
77775;SDS011;73554;43.328;6.668;2024-03-23T03:20:58;9.33;;;5.97;;
77775;SDS011;73554;43.328;6.668;2024-03-23T03:23:23;10.67;;;6.30;;
77775;SDS011;73554;43.328;6.668;2024-03-23T03:25:49;8.77;;;5.93;;
77775;SDS011;73554;43.328;6.668;2024-03-23T03:28:14;9.00;;;5.97;;
77775;SDS011;73554;43.328;6.668;2024-03-23T03:30:39;7.70;;;5.07;;
77775;SDS011;73554;43.328;6.668;2024-03-23T03:33:05;9.53;;;5.27;;
77775;SDS011;73554;43.328;6.668;2024-03-23T03:35:30;7.93;;;5.70;;
77775;SDS011;73554;43.328;6.668;2024-03-23T03:37:55;8.77;;;5.20;;
77775;SDS011;73554;43.328;6.668;2024-03-23T03:40:21;10.13;;;6.43;;
77775;SDS011;73554;43.328;6.668;2024-03-23T03:42:46;10.83;;;6.07;;
77775;SDS011;73554;43.328;6.668;2024-03-23T03:45:11;8.97;;;5.73;;
77775;SDS011;73554;43.328;6.668;2024-03-23T03:47:37;7.85;;;5.68;;
77775;SDS011;73554;43.328;6.668;2024-03-23T03:50:02;9.60;;;5.10;;
77775;SDS011;73554;43.328;6.668;2024-03-23T03:52:27;9.70;;;5.97;;
77775;SDS011;73554;43.328;6.668;2024-03-23T03:54:55;9.17;;;5.73;;
77775;SDS011;73554;43.328;6.668;2024-03-23T03:57:20;8.23;;;5.90;;
77775;SDS011;73554;43.328;6.668;2024-03-23T03:59:46;11.27;;;6.03;;
77775;SDS011;73554;43.328;6.668;2024-03-23T04:02:11;8.93;;;5.47;;
77775;SDS011;73554;43.328;6.668;2024-03-23T04:04:36;9.47;;;5.73;;
77775;SDS011;73554;43.328;6.668;2024-03-23T04:07:02;7.53;;;5.10;;
77775;SDS011;73554;43.328;6.668;2024-03-23T04:09:27;8.52;;;6.30;;
77775;SDS011;73554;43.328;6.668;2024-03-23T04:11:53;8.70;;;5.60;;
77775;SDS011;73554;43.328;6.668;2024-03-23T04:14:20;10.03;;;6.17;;
77775;SDS011;73554;43.328;6.668;2024-03-23T04:16:45;9.32;;;6.03;;
77775;SDS011;73554;43.328;6.668;2024-03-23T04:19:11;8.00;;;5.70;;
77775;SDS011;73554;43.328;6.668;2024-03-23T04:21:37;8.07;;;5.77;;
77775;SDS011;73554;43.328;6.668;2024-03-23T04:24:03;10.68;;;6.72;;
77775;SDS011;73554;43.328;6.668;2024-03-23T04:26:28;8.50;;;5.53;;
77775;SDS011;73554;43.328;6.668;2024-03-23T04:28:53;9.13;;;5.63;;
77775;SDS011;73554;43.328;6.668;2024-03-23T04:31:19;9.13;;;5.40;;
77775;SDS011;73554;43.328;6.668;2024-03-23T04:33:44;8.43;;;5.70;;
77775;SDS011;73554;43.328;6.668;2024-03-23T04:36:09;11.27;;;5.97;;
77775;SDS011;73554;43.328;6.668;2024-03-23T04:38:35;11.70;;;7.00;;
77775;SDS011;73554;43.328;6.668;2024-03-23T04:41:01;10.43;;;5.78;;
77775;SDS011;73554;43.328;6.668;2024-03-23T04:43:27;10.95;;;6.15;;
77775;SDS011;73554;43.328;6.668;2024-03-23T04:45:52;8.80;;;6.37;;
77775;SDS011;73554;43.328;6.668;2024-03-23T04:48:20;8.30;;;5.50;;
77775;SDS011;73554;43.328;6.668;2024-03-23T04:50:47;9.00;;;5.20;;
77775;SDS011;73554;43.328;6.668;2024-03-23T04:53:12;10.03;;;5.20;;
77775;SDS011;73554;43.328;6.668;2024-03-23T04:55:37;9.40;;;5.37;;
77775;SDS011;73554;43.328;6.668;2024-03-23T04:58:03;8.10;;;4.93;;
77775;SDS011;73554;43.328;6.668;2024-03-23T05:00:28;8.93;;;5.50;;
77775;SDS011;73554;43.328;6.668;2024-03-23T05:02:53;9.77;;;5.47;;
77775;SDS011;73554;43.328;6.668;2024-03-23T05:05:19;8.57;;;5.50;;
77775;SDS011;73554;43.328;6.668;2024-03-23T05:07:44;9.77;;;6.07;;
77775;SDS011;73554;43.328;6.668;2024-03-23T05:10:09;8.50;;;4.77;;
77775;SDS011;73554;43.328;6.668;2024-03-23T05:12:38;7.90;;;4.88;;
77775;SDS011;73554;43.328;6.668;2024-03-23T05:15:04;8.05;;;5.00;;
77775;SDS011;73554;43.328;6.668;2024-03-23T05:17:30;9.93;;;5.28;;
77775;SDS011;73554;43.328;6.668;2024-03-23T05:19:56;8.57;;;4.13;;
77775;SDS011;73554;43.328;6.668;2024-03-23T05:22:21;10.20;;;4.50;;
77775;SDS011;73554;43.328;6.668;2024-03-23T05:24:46;8.77;;;5.10;;
77775;SDS011;73554;43.328;6.668;2024-03-23T05:27:12;7.40;;;5.07;;
77775;SDS011;73554;43.328;6.668;2024-03-23T05:29:37;9.25;;;4.60;;
77775;SDS011;73554;43.328;6.668;2024-03-23T05:32:02;7.10;;;4.60;;
77775;SDS011;73554;43.328;6.668;2024-03-23T05:34:31;7.60;;;4.97;;
77775;SDS011;73554;43.328;6.668;2024-03-23T05:36:56;9.53;;;5.10;;
77775;SDS011;73554;43.328;6.668;2024-03-23T05:39:21;7.73;;;4.77;;
77775;SDS011;73554;43.328;6.668;2024-03-23T05:41:47;9.82;;;5.28;;
77775;SDS011;73554;43.328;6.668;2024-03-23T05:44:12;8.57;;;4.95;;
77775;SDS011;73554;43.328;6.668;2024-03-23T05:46:39;7.20;;;4.35;;
77775;SDS011;73554;43.328;6.668;2024-03-23T05:49:04;7.43;;;4.50;;
77775;SDS011;73554;43.328;6.668;2024-03-23T05:51:29;8.43;;;4.83;;
77775;SDS011;73554;43.328;6.668;2024-03-23T05:53:55;11.25;;;4.80;;
77775;SDS011;73554;43.328;6.668;2024-03-23T05:56:20;7.57;;;4.63;;
77775;SDS011;73554;43.328;6.668;2024-03-23T05:58:45;8.17;;;4.50;;
77775;SDS011;73554;43.328;6.668;2024-03-23T06:01:11;9.85;;;4.60;;
77775;SDS011;73554;43.328;6.668;2024-03-23T06:03:37;8.27;;;4.03;;
77775;SDS011;73554;43.328;6.668;2024-03-23T06:06:03;9.90;;;4.47;;
77775;SDS011;73554;43.328;6.668;2024-03-23T06:08:29;8.15;;;4.40;;
77775;SDS011;73554;43.328;6.668;2024-03-23T06:10:57;9.35;;;4.72;;
77775;SDS011;73554;43.328;6.668;2024-03-23T06:13:22;9.57;;;5.67;;
77775;SDS011;73554;43.328;6.668;2024-03-23T06:15:54;9.88;;;5.53;;
77775;SDS011;73554;43.328;6.668;2024-03-23T06:18:20;8.90;;;5.20;;
77775;SDS011;73554;43.328;6.668;2024-03-23T06:20:45;7.30;;;4.40;;
77775;SDS011;73554;43.328;6.668;2024-03-23T06:23:11;9.48;;;4.32;;
77775;SDS011;73554;43.328;6.668;2024-03-23T06:25:37;7.97;;;4.72;;
77775;SDS011;73554;43.328;6.668;2024-03-23T06:28:03;7.70;;;4.20;;
77775;SDS011;73554;43.328;6.668;2024-03-23T06:30:29;7.05;;;4.43;;
77775;SDS011;73554;43.328;6.668;2024-03-23T06:32:54;6.43;;;3.70;;
77775;SDS011;73554;43.328;6.668;2024-03-23T06:35:20;6.90;;;4.18;;
77775;SDS011;73554;43.328;6.668;2024-03-23T06:37:45;7.87;;;4.00;;
77775;SDS011;73554;43.328;6.668;2024-03-23T06:40:10;8.17;;;4.10;;
77775;SDS011;73554;43.328;6.668;2024-03-23T06:42:36;6.93;;;3.67;;
77775;SDS011;73554;43.328;6.668;2024-03-23T06:45:02;6.10;;;3.42;;
77775;SDS011;73554;43.328;6.668;2024-03-23T06:47:28;8.68;;;4.22;;
77775;SDS011;73554;43.328;6.668;2024-03-23T06:49:54;9.63;;;4.40;;
77775;SDS011;73554;43.328;6.668;2024-03-23T06:52:19;7.70;;;4.00;;
77775;SDS011;73554;43.328;6.668;2024-03-23T06:54:44;8.83;;;4.13;;
77775;SDS011;73554;43.328;6.668;2024-03-23T06:57:10;7.38;;;4.47;;
77775;SDS011;73554;43.328;6.668;2024-03-23T06:59:37;5.93;;;3.63;;
77775;SDS011;73554;43.328;6.668;2024-03-23T07:02:02;7.23;;;4.07;;
77775;SDS011;73554;43.328;6.668;2024-03-23T07:04:30;7.20;;;3.72;;
77775;SDS011;73554;43.328;6.668;2024-03-23T07:06:55;9.27;;;4.20;;
77775;SDS011;73554;43.328;6.668;2024-03-23T07:09:21;7.57;;;3.93;;
77775;SDS011;73554;43.328;6.668;2024-03-23T07:11:50;7.22;;;3.60;;
77775;SDS011;73554;43.328;6.668;2024-03-23T07:14:15;7.90;;;3.70;;
77775;SDS011;73554;43.328;6.668;2024-03-23T07:16:40;7.13;;;4.60;;
77775;SDS011;73554;43.328;6.668;2024-03-23T07:19:06;6.43;;;3.70;;
77775;SDS011;73554;43.328;6.668;2024-03-23T07:21:31;6.53;;;3.80;;
77775;SDS011;73554;43.328;6.668;2024-03-23T07:23:56;6.60;;;3.83;;
77775;SDS011;73554;43.328;6.668;2024-03-23T07:26:21;7.20;;;3.53;;
77775;SDS011;73554;43.328;6.668;2024-03-23T07:28:47;8.53;;;4.10;;
77775;SDS011;73554;43.328;6.668;2024-03-23T07:31:14;7.80;;;4.53;;
77775;SDS011;73554;43.328;6.668;2024-03-23T07:33:43;5.60;;;3.30;;
77775;SDS011;73554;43.328;6.668;2024-03-23T07:38:37;8.10;;;3.60;;
77775;SDS011;73554;43.328;6.668;2024-03-23T07:41:09;7.33;;;4.13;;
77775;SDS011;73554;43.328;6.668;2024-03-23T07:43:35;6.88;;;4.35;;
77775;SDS011;73554;43.328;6.668;2024-03-23T07:46:00;7.18;;;3.35;;
77775;SDS011;73554;43.328;6.668;2024-03-23T07:48:26;7.63;;;3.88;;
77775;SDS011;73554;43.328;6.668;2024-03-23T07:53:26;7.30;;;4.07;;
77775;SDS011;73554;43.328;6.668;2024-03-23T07:55:55;7.15;;;3.92;;
77775;SDS011;73554;43.328;6.668;2024-03-23T07:58:20;6.05;;;3.78;;
77775;SDS011;73554;43.328;6.668;2024-03-23T08:00:45;9.10;;;4.73;;
77775;SDS011;73554;43.328;6.668;2024-03-23T08:03:11;8.45;;;4.00;;
77775;SDS011;73554;43.328;6.668;2024-03-23T08:05:36;7.00;;;3.93;;
77775;SDS011;73554;43.328;6.668;2024-03-23T08:08:02;8.70;;;4.50;;
77775;SDS011;73554;43.328;6.668;2024-03-23T08:10:27;9.27;;;4.73;;
77775;SDS011;73554;43.328;6.668;2024-03-23T08:12:52;8.33;;;4.57;;
77775;SDS011;73554;43.328;6.668;2024-03-23T08:15:17;9.00;;;4.53;;
77775;SDS011;73554;43.328;6.668;2024-03-23T08:17:43;7.20;;;4.27;;
77775;SDS011;73554;43.328;6.668;2024-03-23T08:20:08;10.57;;;4.83;;
77775;SDS011;73554;43.328;6.668;2024-03-23T08:22:33;8.80;;;4.70;;
77775;SDS011;73554;43.328;6.668;2024-03-23T08:24:59;8.70;;;4.70;;
77775;SDS011;73554;43.328;6.668;2024-03-23T08:27:24;7.10;;;4.33;;
77775;SDS011;73554;43.328;6.668;2024-03-23T08:29:49;6.47;;;4.13;;
77775;SDS011;73554;43.328;6.668;2024-03-23T08:32:14;7.37;;;4.43;;
77775;SDS011;73554;43.328;6.668;2024-03-23T08:34:42;9.48;;;6.03;;
77775;SDS011;73554;43.328;6.668;2024-03-23T08:37:07;14.73;;;7.03;;
77775;SDS011;73554;43.328;6.668;2024-03-23T08:39:33;9.67;;;6.37;;
77775;SDS011;73554;43.328;6.668;2024-03-23T08:41:58;10.13;;;6.10;;
77775;SDS011;73554;43.328;6.668;2024-03-23T08:44:23;13.27;;;7.07;;
77775;SDS011;73554;43.328;6.668;2024-03-23T08:46:48;10.63;;;5.90;;
77775;SDS011;73554;43.328;6.668;2024-03-23T08:49:14;14.53;;;6.40;;
77775;SDS011;73554;43.328;6.668;2024-03-23T08:51:39;9.40;;;6.07;;
77775;SDS011;73554;43.328;6.668;2024-03-23T08:54:04;11.63;;;6.13;;
77775;SDS011;73554;43.328;6.668;2024-03-23T08:56:30;12.68;;;6.90;;
77775;SDS011;73554;43.328;6.668;2024-03-23T08:58:55;12.60;;;6.13;;
77775;SDS011;73554;43.328;6.668;2024-03-23T09:01:20;12.33;;;5.83;;
77775;SDS011;73554;43.328;6.668;2024-03-23T09:03:45;12.63;;;6.23;;
77775;SDS011;73554;43.328;6.668;2024-03-23T09:06:11;13.43;;;6.28;;
77775;SDS011;73554;43.328;6.668;2024-03-23T09:11:12;11.27;;;6.10;;
77775;SDS011;73554;43.328;6.668;2024-03-23T09:13:40;11.70;;;6.53;;
77775;SDS011;73554;43.328;6.668;2024-03-23T09:16:08;10.70;;;5.78;;
77775;SDS011;73554;43.328;6.668;2024-03-23T09:18:35;10.38;;;6.57;;
77775;SDS011;73554;43.328;6.668;2024-03-23T09:21:01;16.75;;;6.80;;
77775;SDS011;73554;43.328;6.668;2024-03-23T09:23:26;11.20;;;6.90;;
77775;SDS011;73554;43.328;6.668;2024-03-23T09:25:51;10.70;;;6.13;;
77775;SDS011;73554;43.328;6.668;2024-03-23T09:28:17;10.57;;;5.80;;
77775;SDS011;73554;43.328;6.668;2024-03-23T09:30:42;12.57;;;5.33;;
77775;SDS011;73554;43.328;6.668;2024-03-23T09:33:10;13.43;;;6.07;;
77775;SDS011;73554;43.328;6.668;2024-03-23T09:35:36;11.82;;;5.70;;
77775;SDS011;73554;43.328;6.668;2024-03-23T09:38:01;11.07;;;5.93;;
77775;SDS011;73554;43.328;6.668;2024-03-23T09:40:27;10.73;;;5.27;;
77775;SDS011;73554;43.328;6.668;2024-03-23T09:42:52;10.00;;;5.63;;
77775;SDS011;73554;43.328;6.668;2024-03-23T09:45:21;11.17;;;5.37;;
77775;SDS011;73554;43.328;6.668;2024-03-23T09:47:46;9.95;;;5.53;;
77775;SDS011;73554;43.328;6.668;2024-03-23T09:50:12;10.43;;;5.43;;
77775;SDS011;73554;43.328;6.668;2024-03-23T09:52:38;10.60;;;5.88;;
77775;SDS011;73554;43.328;6.668;2024-03-23T09:55:03;9.05;;;5.95;;
77775;SDS011;73554;43.328;6.668;2024-03-23T09:57:29;15.00;;;5.57;;
77775;SDS011;73554;43.328;6.668;2024-03-23T09:59:54;9.57;;;5.30;;
77775;SDS011;73554;43.328;6.668;2024-03-23T10:02:20;10.43;;;5.32;;
77775;SDS011;73554;43.328;6.668;2024-03-23T10:04:46;10.73;;;5.80;;
77775;SDS011;73554;43.328;6.668;2024-03-23T10:07:15;10.00;;;5.53;;
77775;SDS011;73554;43.328;6.668;2024-03-23T10:09:42;10.48;;;5.72;;
77775;SDS011;73554;43.328;6.668;2024-03-23T10:12:08;8.73;;;5.27;;
77775;SDS011;73554;43.328;6.668;2024-03-23T10:14:34;9.35;;;5.30;;
77775;SDS011;73554;43.328;6.668;2024-03-23T10:17:11;9.67;;;5.63;;
77775;SDS011;73554;43.328;6.668;2024-03-23T10:19:38;12.57;;;5.13;;
77775;SDS011;73554;43.328;6.668;2024-03-23T10:22:04;11.40;;;5.47;;
77775;SDS011;73554;43.328;6.668;2024-03-23T10:24:29;9.63;;;5.00;;
77775;SDS011;73554;43.328;6.668;2024-03-23T10:26:57;13.07;;;5.30;;
77775;SDS011;73554;43.328;6.668;2024-03-23T10:29:23;8.63;;;4.70;;
77775;SDS011;73554;43.328;6.668;2024-03-23T10:31:48;9.80;;;5.73;;
77775;SDS011;73554;43.328;6.668;2024-03-23T10:34:14;11.63;;;5.68;;
77775;SDS011;73554;43.328;6.668;2024-03-23T10:36:40;8.80;;;5.00;;
77775;SDS011;73554;43.328;6.668;2024-03-23T10:41:31;9.97;;;4.33;;
77775;SDS011;73554;43.328;6.668;2024-03-23T10:43:57;11.90;;;5.22;;
77775;SDS011;73554;43.328;6.668;2024-03-23T10:46:23;10.98;;;4.97;;
77775;SDS011;73554;43.328;6.668;2024-03-23T10:48:48;11.77;;;4.73;;
77775;SDS011;73554;43.328;6.668;2024-03-23T10:51:14;10.60;;;5.13;;
77775;SDS011;73554;43.328;6.668;2024-03-23T10:53:39;9.45;;;4.82;;
77775;SDS011;73554;43.328;6.668;2024-03-23T10:56:05;9.30;;;5.25;;
77775;SDS011;73554;43.328;6.668;2024-03-23T10:58:31;9.25;;;4.93;;
77775;SDS011;73554;43.328;6.668;2024-03-23T11:01:00;9.07;;;4.95;;
77775;SDS011;73554;43.328;6.668;2024-03-23T11:03:34;8.85;;;5.07;;
77775;SDS011;73554;43.328;6.668;2024-03-23T11:06:01;8.15;;;4.35;;
77775;SDS011;73554;43.328;6.668;2024-03-23T11:08:45;8.02;;;4.50;;
77775;SDS011;73554;43.328;6.668;2024-03-23T11:13:39;8.93;;;4.70;;
77775;SDS011;73554;43.328;6.668;2024-03-23T11:16:17;8.30;;;4.27;;
77775;SDS011;73554;43.328;6.668;2024-03-23T11:18:46;9.90;;;4.50;;
77775;SDS011;73554;43.328;6.668;2024-03-23T11:21:11;5.90;;;3.83;;
77775;SDS011;73554;43.328;6.668;2024-03-23T11:24:18;8.50;;;4.63;;
77775;SDS011;73554;43.328;6.668;2024-03-23T11:26:43;8.70;;;4.32;;
77775;SDS011;73554;43.328;6.668;2024-03-23T11:29:09;6.60;;;4.23;;
77775;SDS011;73554;43.328;6.668;2024-03-23T11:31:36;9.02;;;3.67;;
77775;SDS011;73554;43.328;6.668;2024-03-23T11:34:04;6.35;;;3.47;;
77775;SDS011;73554;43.328;6.668;2024-03-23T11:36:30;7.72;;;3.10;;
77775;SDS011;73554;43.328;6.668;2024-03-23T11:38:55;7.30;;;3.30;;
77775;SDS011;73554;43.328;6.668;2024-03-23T11:41:20;7.70;;;3.33;;
77775;SDS011;73554;43.328;6.668;2024-03-23T11:43:46;9.00;;;3.27;;
77775;SDS011;73554;43.328;6.668;2024-03-23T11:46:11;6.10;;;3.23;;
77775;SDS011;73554;43.328;6.668;2024-03-23T11:48:36;5.87;;;3.23;;
77775;SDS011;73554;43.328;6.668;2024-03-23T11:51:01;8.07;;;3.33;;
77775;SDS011;73554;43.328;6.668;2024-03-23T11:53:27;5.73;;;2.60;;
77775;SDS011;73554;43.328;6.668;2024-03-23T11:55:56;6.45;;;3.38;;
77775;SDS011;73554;43.328;6.668;2024-03-23T11:58:24;6.75;;;2.75;;
77775;SDS011;73554;43.328;6.668;2024-03-23T12:00:50;5.53;;;2.53;;
77775;SDS011;73554;43.328;6.668;2024-03-23T12:03:17;6.00;;;2.70;;
77775;SDS011;73554;43.328;6.668;2024-03-23T12:05:47;7.68;;;2.63;;
77775;SDS011;73554;43.328;6.668;2024-03-23T12:08:22;4.22;;;2.33;;
77775;SDS011;73554;43.328;6.668;2024-03-23T12:10:49;6.07;;;3.08;;
77775;SDS011;73554;43.328;6.668;2024-03-23T12:13:15;5.10;;;1.95;;
77775;SDS011;73554;43.328;6.668;2024-03-23T12:15:42;6.35;;;2.20;;
77775;SDS011;73554;43.328;6.668;2024-03-23T12:18:10;5.00;;;2.17;;
77775;SDS011;73554;43.328;6.668;2024-03-23T12:20:35;7.57;;;2.33;;
77775;SDS011;73554;43.328;6.668;2024-03-23T12:23:09;3.40;;;1.63;;
77775;SDS011;73554;43.328;6.668;2024-03-23T12:25:40;4.57;;;1.90;;
77775;SDS011;73554;43.328;6.668;2024-03-23T12:28:06;4.20;;;1.98;;
77775;SDS011;73554;43.328;6.668;2024-03-23T12:30:33;7.50;;;2.03;;
77775;SDS011;73554;43.328;6.668;2024-03-23T12:32:59;6.20;;;2.60;;
77775;SDS011;73554;43.328;6.668;2024-03-23T12:35:24;4.67;;;2.20;;
77775;SDS011;73554;43.328;6.668;2024-03-23T12:37:49;4.03;;;2.00;;
77775;SDS011;73554;43.328;6.668;2024-03-23T12:40:15;4.70;;;2.57;;
77775;SDS011;73554;43.328;6.668;2024-03-23T12:42:40;14.53;;;3.10;;
77775;SDS011;73554;43.328;6.668;2024-03-23T12:45:05;6.30;;;2.23;;
77775;SDS011;73554;43.328;6.668;2024-03-23T12:47:31;5.25;;;2.10;;
77775;SDS011;73554;43.328;6.668;2024-03-23T12:49:56;6.00;;;2.30;;
77775;SDS011;73554;43.328;6.668;2024-03-23T12:52:21;5.03;;;2.57;;
77775;SDS011;73554;43.328;6.668;2024-03-23T12:54:49;5.20;;;2.53;;
77775;SDS011;73554;43.328;6.668;2024-03-23T12:57:14;7.47;;;2.90;;
77775;SDS011;73554;43.328;6.668;2024-03-23T12:59:39;6.50;;;2.60;;
77775;SDS011;73554;43.328;6.668;2024-03-23T13:02:05;4.73;;;2.40;;
77775;SDS011;73554;43.328;6.668;2024-03-23T13:04:31;4.68;;;2.28;;
77775;SDS011;73554;43.328;6.668;2024-03-23T13:06:56;8.93;;;2.88;;
77775;SDS011;73554;43.328;6.668;2024-03-23T13:09:22;6.60;;;2.90;;
77775;SDS011;73554;43.328;6.668;2024-03-23T13:11:47;8.10;;;3.00;;
77775;SDS011;73554;43.328;6.668;2024-03-23T13:14:12;6.40;;;3.10;;
77775;SDS011;73554;43.328;6.668;2024-03-23T13:16:40;5.57;;;2.63;;
77775;SDS011;73554;43.328;6.668;2024-03-23T13:19:10;6.13;;;2.85;;
77775;SDS011;73554;43.328;6.668;2024-03-23T13:21:36;6.93;;;2.55;;
77775;SDS011;73554;43.328;6.668;2024-03-23T13:24:01;5.93;;;3.27;;
77775;SDS011;73554;43.328;6.668;2024-03-23T13:26:26;5.00;;;2.50;;
77775;SDS011;73554;43.328;6.668;2024-03-23T13:28:51;6.27;;;2.57;;
77775;SDS011;73554;43.328;6.668;2024-03-23T13:31:17;4.73;;;2.50;;
77775;SDS011;73554;43.328;6.668;2024-03-23T13:33:42;5.17;;;3.00;;
77775;SDS011;73554;43.328;6.668;2024-03-23T13:36:09;4.75;;;2.42;;
77775;SDS011;73554;43.328;6.668;2024-03-23T13:38:34;4.43;;;2.40;;
77775;SDS011;73554;43.328;6.668;2024-03-23T13:40:59;4.20;;;2.10;;
77775;SDS011;73554;43.328;6.668;2024-03-23T13:43:26;5.35;;;2.22;;
77775;SDS011;73554;43.328;6.668;2024-03-23T13:45:55;5.03;;;2.25;;
77775;SDS011;73554;43.328;6.668;2024-03-23T13:48:21;4.00;;;1.73;;
77775;SDS011;73554;43.328;6.668;2024-03-23T13:50:47;5.40;;;2.10;;
77775;SDS011;73554;43.328;6.668;2024-03-23T13:53:13;3.25;;;1.45;;
77775;SDS011;73554;43.328;6.668;2024-03-23T13:55:45;4.88;;;1.60;;
77775;SDS011;73554;43.328;6.668;2024-03-23T14:00:37;4.30;;;1.60;;
77775;SDS011;73554;43.328;6.668;2024-03-23T14:03:02;11.13;;;1.90;;
77775;SDS011;73554;43.328;6.668;2024-03-23T14:05:28;3.63;;;1.43;;
77775;SDS011;73554;43.328;6.668;2024-03-23T14:07:53;4.50;;;1.60;;
77775;SDS011;73554;43.328;6.668;2024-03-23T14:10:18;4.87;;;1.57;;
77775;SDS011;73554;43.328;6.668;2024-03-23T14:12:45;6.55;;;1.60;;
77775;SDS011;73554;43.328;6.668;2024-03-23T14:15:11;3.77;;;1.63;;
77775;SDS011;73554;43.328;6.668;2024-03-23T14:17:38;7.20;;;1.48;;
77775;SDS011;73554;43.328;6.668;2024-03-23T14:20:04;5.18;;;1.40;;
77775;SDS011;73554;43.328;6.668;2024-03-23T14:22:30;3.20;;;1.30;;
77775;SDS011;73554;43.328;6.668;2024-03-23T14:24:56;3.30;;;1.40;;
77775;SDS011;73554;43.328;6.668;2024-03-23T14:27:21;3.13;;;1.13;;
77775;SDS011;73554;43.328;6.668;2024-03-23T14:29:49;5.78;;;1.50;;
77775;SDS011;73554;43.328;6.668;2024-03-23T14:32:14;3.57;;;1.23;;
77775;SDS011;73554;43.328;6.668;2024-03-23T14:34:40;3.92;;;1.38;;
77775;SDS011;73554;43.328;6.668;2024-03-23T14:37:06;3.92;;;1.38;;
77775;SDS011;73554;43.328;6.668;2024-03-23T14:39:33;4.32;;;1.42;;
77775;SDS011;73554;43.328;6.668;2024-03-23T14:42:00;4.53;;;1.60;;
77775;SDS011;73554;43.328;6.668;2024-03-23T14:44:25;3.47;;;1.30;;
77775;SDS011;73554;43.328;6.668;2024-03-23T14:46:50;4.77;;;1.70;;
77775;SDS011;73554;43.328;6.668;2024-03-23T14:49:16;3.03;;;1.00;;
77775;SDS011;73554;43.328;6.668;2024-03-23T14:51:46;2.33;;;1.02;;
77775;SDS011;73554;43.328;6.668;2024-03-23T14:54:12;3.07;;;1.30;;
77775;SDS011;73554;43.328;6.668;2024-03-23T14:56:38;2.90;;;1.00;;
77775;SDS011;73554;43.328;6.668;2024-03-23T14:59:03;5.00;;;1.00;;
77775;SDS011;73554;43.328;6.668;2024-03-23T15:01:28;4.70;;;1.43;;
77775;SDS011;73554;43.328;6.668;2024-03-23T15:03:54;4.47;;;1.10;;
77775;SDS011;73554;43.328;6.668;2024-03-23T15:06:19;3.53;;;1.10;;
77775;SDS011;73554;43.328;6.668;2024-03-23T15:08:44;3.05;;;1.55;;
77775;SDS011;73554;43.328;6.668;2024-03-23T15:11:10;2.97;;;1.42;;
77775;SDS011;73554;43.328;6.668;2024-03-23T15:13:36;2.55;;;1.00;;
77775;SDS011;73554;43.328;6.668;2024-03-23T15:16:01;8.52;;;1.13;;
77775;SDS011;73554;43.328;6.668;2024-03-23T15:18:28;4.28;;;1.20;;
77775;SDS011;73554;43.328;6.668;2024-03-23T15:20:55;3.55;;;1.20;;
77775;SDS011;73554;43.328;6.668;2024-03-23T15:23:20;4.30;;;1.10;;
77775;SDS011;73554;43.328;6.668;2024-03-23T15:25:53;5.47;;;1.55;;
77775;SDS011;73554;43.328;6.668;2024-03-23T15:28:18;4.03;;;1.00;;
77775;SDS011;73554;43.328;6.668;2024-03-23T15:30:43;2.30;;;0.90;;
77775;SDS011;73554;43.328;6.668;2024-03-23T15:33:09;5.37;;;1.07;;
77775;SDS011;73554;43.328;6.668;2024-03-23T15:35:34;2.07;;;0.80;;
77775;SDS011;73554;43.328;6.668;2024-03-23T15:37:59;6.80;;;1.10;;
77775;SDS011;73554;43.328;6.668;2024-03-23T15:40:24;2.07;;;0.83;;
77775;SDS011;73554;43.328;6.668;2024-03-23T15:42:50;3.07;;;0.90;;
77775;SDS011;73554;43.328;6.668;2024-03-23T15:45:15;2.70;;;0.80;;
77775;SDS011;73554;43.328;6.668;2024-03-23T15:47:40;3.97;;;1.03;;